sensor_id;sensor_type;location;lat;lon;timestamp;temperature;humidity
75113;DHT22;63692;47.338;8.520;2023-05-10T04:28:45;13.90;99.90
75113;DHT22;63692;47.338;8.520;2023-05-10T04:31:52;13.90;99.90
75113;DHT22;63692;47.338;8.520;2023-05-10T04:34:23;13.80;99.90
75113;DHT22;63692;47.338;8.520;2023-05-10T04:36:48;13.90;99.90
75113;DHT22;63692;47.338;8.520;2023-05-10T04:39:14;13.90;99.90
75113;DHT22;63692;47.338;8.520;2023-05-10T04:41:40;13.80;99.90
75113;DHT22;63692;47.338;8.520;2023-05-10T04:51:29;13.50;99.90
75113;DHT22;63692;47.338;8.520;2023-05-10T04:53:56;13.50;99.90
75113;DHT22;63692;47.338;8.520;2023-05-10T04:56:22;13.40;99.90
75113;DHT22;63692;47.338;8.520;2023-05-10T04:58:47;13.40;99.90
75113;DHT22;63692;47.338;8.520;2023-05-10T05:01:13;13.40;99.90
75113;DHT22;63692;47.338;8.520;2023-05-10T05:03:39;13.40;99.90
75113;DHT22;63692;47.338;8.520;2023-05-10T05:06:05;13.50;99.90
75113;DHT22;63692;47.338;8.520;2023-05-10T05:08:30;13.50;99.90
75113;DHT22;63692;47.338;8.520;2023-05-10T05:10:56;13.40;99.90
75113;DHT22;63692;47.338;8.520;2023-05-10T05:13:22;13.40;99.90
75113;DHT22;63692;47.338;8.520;2023-05-10T05:15:47;13.40;99.90
75113;DHT22;63692;47.338;8.520;2023-05-10T05:18:13;13.40;99.90
75113;DHT22;63692;47.338;8.520;2023-05-10T05:20:39;13.30;99.90
75113;DHT22;63692;47.338;8.520;2023-05-10T05:23:05;13.40;99.90
75113;DHT22;63692;47.338;8.520;2023-05-10T05:30:29;13.40;99.90
75113;DHT22;63692;47.338;8.520;2023-05-10T05:32:54;13.40;99.90
75113;DHT22;63692;47.338;8.520;2023-05-10T05:37:47;13.30;99.90
75113;DHT22;63692;47.338;8.520;2023-05-10T05:40:13;13.30;99.90
75113;DHT22;63692;47.338;8.520;2023-05-10T05:42:39;13.30;99.90
75113;DHT22;63692;47.338;8.520;2023-05-10T05:59:51;13.50;99.90
75113;DHT22;63692;47.338;8.520;2023-05-10T06:02:17;13.50;99.90
75113;DHT22;63692;47.338;8.520;2023-05-10T06:04:42;13.50;99.90
75113;DHT22;63692;47.338;8.520;2023-05-10T06:07:08;13.60;99.90
75113;DHT22;63692;47.338;8.520;2023-05-10T06:09:34;13.70;99.90
75113;DHT22;63692;47.338;8.520;2023-05-10T06:11:59;13.70;99.90
75113;DHT22;63692;47.338;8.520;2023-05-10T06:14:25;13.70;99.90
75113;DHT22;63692;47.338;8.520;2023-05-10T06:16:50;13.50;99.90
75113;DHT22;63692;47.338;8.520;2023-05-10T06:19:16;13.50;99.90
75113;DHT22;63692;47.338;8.520;2023-05-10T06:21:42;13.60;99.90
75113;DHT22;63692;47.338;8.520;2023-05-10T06:24:08;13.60;99.90
75113;DHT22;63692;47.338;8.520;2023-05-10T06:26:33;13.70;99.90
75113;DHT22;63692;47.338;8.520;2023-05-10T06:28:59;13.80;99.90
75113;DHT22;63692;47.338;8.520;2023-05-10T06:31:25;13.80;99.90
75113;DHT22;63692;47.338;8.520;2023-05-10T06:33:50;13.90;99.90
75113;DHT22;63692;47.338;8.520;2023-05-10T06:36:16;13.90;99.90
75113;DHT22;63692;47.338;8.520;2023-05-10T06:38:41;13.90;99.90
75113;DHT22;63692;47.338;8.520;2023-05-10T06:41:07;13.90;99.90
75113;DHT22;63692;47.338;8.520;2023-05-10T06:43:33;13.90;99.90
75113;DHT22;63692;47.338;8.520;2023-05-10T06:45:59;14.00;99.90
75113;DHT22;63692;47.338;8.520;2023-05-10T06:48:24;13.90;99.90
75113;DHT22;63692;47.338;8.520;2023-05-10T06:50:50;13.90;99.90
75113;DHT22;63692;47.338;8.520;2023-05-10T06:53:16;13.90;99.90
75113;DHT22;63692;47.338;8.520;2023-05-10T06:55:42;13.90;99.90
75113;DHT22;63692;47.338;8.520;2023-05-10T06:58:07;13.90;99.90
75113;DHT22;63692;47.338;8.520;2023-05-10T07:00:33;13.90;99.90
75113;DHT22;63692;47.338;8.520;2023-05-10T07:02:58;13.80;99.90
75113;DHT22;63692;47.338;8.520;2023-05-10T07:05:24;13.80;99.90
75113;DHT22;63692;47.338;8.520;2023-05-10T07:07:50;13.80;99.90
75113;DHT22;63692;47.338;8.520;2023-05-10T07:10:15;13.90;99.90
75113;DHT22;63692;47.338;8.520;2023-05-10T07:12:41;14.00;99.90
75113;DHT22;63692;47.338;8.520;2023-05-10T07:15:07;14.00;99.90
75113;DHT22;63692;47.338;8.520;2023-05-10T07:17:33;14.00;99.90
75113;DHT22;63692;47.338;8.520;2023-05-10T07:19:59;13.90;99.90
75113;DHT22;63692;47.338;8.520;2023-05-10T07:22:25;13.90;99.90
75113;DHT22;63692;47.338;8.520;2023-05-10T07:24:51;13.90;99.90
75113;DHT22;63692;47.338;8.520;2023-05-10T07:27:17;14.00;99.90
75113;DHT22;63692;47.338;8.520;2023-05-10T07:29:45;14.00;99.90
75113;DHT22;63692;47.338;8.520;2023-05-10T07:32:11;14.00;99.90
75113;DHT22;63692;47.338;8.520;2023-05-10T07:34:36;13.90;99.90
75113;DHT22;63692;47.338;8.520;2023-05-10T07:37:02;13.90;99.90
75113;DHT22;63692;47.338;8.520;2023-05-10T07:39:28;13.80;99.90
75113;DHT22;63692;47.338;8.520;2023-05-10T07:41:54;13.60;99.90
75113;DHT22;63692;47.338;8.520;2023-05-10T07:44:20;13.70;99.90
75113;DHT22;63692;47.338;8.520;2023-05-10T07:46:47;13.60;99.90
75113;DHT22;63692;47.338;8.520;2023-05-10T07:49:13;13.50;99.90
75113;DHT22;63692;47.338;8.520;2023-05-10T07:51:38;13.50;99.90
75113;DHT22;63692;47.338;8.520;2023-05-10T07:54:04;13.50;99.90
75113;DHT22;63692;47.338;8.520;2023-05-10T07:56:31;13.40;99.90
75113;DHT22;63692;47.338;8.520;2023-05-10T07:58:58;13.40;99.90
75113;DHT22;63692;47.338;8.520;2023-05-10T08:01:25;13.40;99.90
75113;DHT22;63692;47.338;8.520;2023-05-10T08:03:50;13.50;99.90
75113;DHT22;63692;47.338;8.520;2023-05-10T08:06:20;13.40;99.90
75113;DHT22;63692;47.338;8.520;2023-05-10T08:08:47;13.40;99.90
75113;DHT22;63692;47.338;8.520;2023-05-10T08:11:17;13.40;99.90
75113;DHT22;63692;47.338;8.520;2023-05-10T08:13:44;13.40;99.90
75113;DHT22;63692;47.338;8.520;2023-05-10T08:16:10;13.40;99.90
75113;DHT22;63692;47.338;8.520;2023-05-10T08:18:36;13.50;99.90
75113;DHT22;63692;47.338;8.520;2023-05-10T08:21:02;13.50;99.90
75113;DHT22;63692;47.338;8.520;2023-05-10T08:23:27;13.50;99.90
75113;DHT22;63692;47.338;8.520;2023-05-10T08:25:53;13.60;99.90
75113;DHT22;63692;47.338;8.520;2023-05-10T08:28:19;13.60;99.90
75113;DHT22;63692;47.338;8.520;2023-05-10T08:30:44;13.60;99.90
75113;DHT22;63692;47.338;8.520;2023-05-10T08:33:10;13.70;99.90
75113;DHT22;63692;47.338;8.520;2023-05-10T08:35:36;13.70;99.90
75113;DHT22;63692;47.338;8.520;2023-05-10T08:38:01;13.70;99.90
75113;DHT22;63692;47.338;8.520;2023-05-10T08:40:27;13.70;99.90
75113;DHT22;63692;47.338;8.520;2023-05-10T08:43:01;13.80;99.90
75113;DHT22;63692;47.338;8.520;2023-05-10T08:45:32;13.80;99.90
75113;DHT22;63692;47.338;8.520;2023-05-10T08:48:01;13.90;99.90
75113;DHT22;63692;47.338;8.520;2023-05-10T08:50:27;14.00;99.90
75113;DHT22;63692;47.338;8.520;2023-05-10T08:52:55;13.90;99.90
75113;DHT22;63692;47.338;8.520;2023-05-10T08:55:20;13.90;99.90
75113;DHT22;63692;47.338;8.520;2023-05-10T08:57:48;13.90;99.90
75113;DHT22;63692;47.338;8.520;2023-05-10T09:00:14;13.80;99.90
75113;DHT22;63692;47.338;8.520;2023-05-10T09:02:41;13.90;99.90
75113;DHT22;63692;47.338;8.520;2023-05-10T09:05:08;13.80;99.90
75113;DHT22;63692;47.338;8.520;2023-05-10T09:07:35;13.80;99.90
75113;DHT22;63692;47.338;8.520;2023-05-10T09:10:01;13.60;99.90
75113;DHT22;63692;47.338;8.520;2023-05-10T09:12:27;13.70;99.90
75113;DHT22;63692;47.338;8.520;2023-05-10T09:14:54;13.70;99.90
75113;DHT22;63692;47.338;8.520;2023-05-10T09:17:24;13.70;99.90
75113;DHT22;63692;47.338;8.520;2023-05-10T09:19:57;13.70;99.90
75113;DHT22;63692;47.338;8.520;2023-05-10T09:22:23;13.80;99.90
75113;DHT22;63692;47.338;8.520;2023-05-10T09:25:13;13.90;99.90
75113;DHT22;63692;47.338;8.520;2023-05-10T09:27:40;14.00;99.90
75113;DHT22;63692;47.338;8.520;2023-05-10T09:30:06;14.00;99.90
75113;DHT22;63692;47.338;8.520;2023-05-10T09:32:44;14.00;99.90
75113;DHT22;63692;47.338;8.520;2023-05-10T09:35:15;14.00;99.90
75113;DHT22;63692;47.338;8.520;2023-05-10T09:37:43;14.00;99.90
75113;DHT22;63692;47.338;8.520;2023-05-10T09:40:14;14.00;99.90
75113;DHT22;63692;47.338;8.520;2023-05-10T09:42:42;14.00;99.90
75113;DHT22;63692;47.338;8.520;2023-05-10T09:45:08;13.90;99.90
75113;DHT22;63692;47.338;8.520;2023-05-10T09:47:35;14.00;99.90
75113;DHT22;63692;47.338;8.520;2023-05-10T09:50:03;14.00;99.90
75113;DHT22;63692;47.338;8.520;2023-05-10T09:55:16;14.10;99.90
75113;DHT22;63692;47.338;8.520;2023-05-10T09:57:42;14.20;99.90
75113;DHT22;63692;47.338;8.520;2023-05-10T10:00:08;14.30;99.90
75113;DHT22;63692;47.338;8.520;2023-05-10T10:02:35;14.30;99.90
75113;DHT22;63692;47.338;8.520;2023-05-10T10:05:02;14.30;99.90
75113;DHT22;63692;47.338;8.520;2023-05-10T10:07:31;14.40;99.90
75113;DHT22;63692;47.338;8.520;2023-05-10T10:09:58;14.40;99.90
75113;DHT22;63692;47.338;8.520;2023-05-10T10:12:25;14.30;99.90
75113;DHT22;63692;47.338;8.520;2023-05-10T10:14:51;14.30;99.90
75113;DHT22;63692;47.338;8.520;2023-05-10T10:17:18;14.30;99.90
75113;DHT22;63692;47.338;8.520;2023-05-10T10:19:45;14.30;99.90
75113;DHT22;63692;47.338;8.520;2023-05-10T10:22:12;14.30;99.90
75113;DHT22;63692;47.338;8.520;2023-05-10T10:24:38;14.20;99.90
75113;DHT22;63692;47.338;8.520;2023-05-10T10:27:15;14.20;99.90
75113;DHT22;63692;47.338;8.520;2023-05-10T10:29:58;14.20;99.90
75113;DHT22;63692;47.338;8.520;2023-05-10T10:35:29;14.40;99.90
75113;DHT22;63692;47.338;8.520;2023-05-10T10:37:56;14.40;99.90
75113;DHT22;63692;47.338;8.520;2023-05-10T10:40:40;14.50;99.90
75113;DHT22;63692;47.338;8.520;2023-05-10T10:43:25;14.70;99.90
75113;DHT22;63692;47.338;8.520;2023-05-10T10:46:16;14.80;99.90
75113;DHT22;63692;47.338;8.520;2023-05-10T10:48:49;14.80;99.90
75113;DHT22;63692;47.338;8.520;2023-05-10T10:51:16;14.80;99.90
75113;DHT22;63692;47.338;8.520;2023-05-10T10:53:42;14.80;99.90
75113;DHT22;63692;47.338;8.520;2023-05-10T10:56:10;14.90;99.90
75113;DHT22;63692;47.338;8.520;2023-05-10T10:58:40;15.10;99.90
75113;DHT22;63692;47.338;8.520;2023-05-10T11:01:17;15.20;99.90
75113;DHT22;63692;47.338;8.520;2023-05-10T11:06:35;15.20;99.90
75113;DHT22;63692;47.338;8.520;2023-05-10T11:09:11;15.10;99.90
75113;DHT22;63692;47.338;8.520;2023-05-10T11:11:54;15.10;99.90
75113;DHT22;63692;47.338;8.520;2023-05-10T11:14:24;15.00;99.90
75113;DHT22;63692;47.338;8.520;2023-05-10T11:16:51;14.90;99.90
75113;DHT22;63692;47.338;8.520;2023-05-10T11:19:18;14.90;99.90
75113;DHT22;63692;47.338;8.520;2023-05-10T11:21:51;14.90;99.90
75113;DHT22;63692;47.338;8.520;2023-05-10T11:24:18;14.80;99.90
75113;DHT22;63692;47.338;8.520;2023-05-10T11:26:44;14.70;99.90
75113;DHT22;63692;47.338;8.520;2023-05-10T11:29:10;14.60;99.90
75113;DHT22;63692;47.338;8.520;2023-05-10T11:31:42;14.60;99.90
75113;DHT22;63692;47.338;8.520;2023-05-10T11:34:09;14.60;99.90
75113;DHT22;63692;47.338;8.520;2023-05-10T11:36:36;14.70;99.90
75113;DHT22;63692;47.338;8.520;2023-05-10T11:39:03;14.90;99.90
75113;DHT22;63692;47.338;8.520;2023-05-10T11:41:29;14.90;99.90
75113;DHT22;63692;47.338;8.520;2023-05-10T11:43:57;15.00;99.90
75113;DHT22;63692;47.338;8.520;2023-05-10T11:46:25;15.00;99.90
75113;DHT22;63692;47.338;8.520;2023-05-10T11:48:55;14.90;99.90
75113;DHT22;63692;47.338;8.520;2023-05-10T11:51:23;14.90;99.90
75113;DHT22;63692;47.338;8.520;2023-05-10T11:53:52;14.90;99.90
75113;DHT22;63692;47.338;8.520;2023-05-10T11:56:18;14.80;99.90
75113;DHT22;63692;47.338;8.520;2023-05-10T11:58:44;14.80;99.90
75113;DHT22;63692;47.338;8.520;2023-05-10T12:01:12;14.90;99.90
75113;DHT22;63692;47.338;8.520;2023-05-10T12:03:38;14.80;99.90
75113;DHT22;63692;47.338;8.520;2023-05-10T12:06:06;14.80;99.90
75113;DHT22;63692;47.338;8.520;2023-05-10T12:08:32;14.80;99.90
75113;DHT22;63692;47.338;8.520;2023-05-10T12:11:06;14.90;99.90
75113;DHT22;63692;47.338;8.520;2023-05-10T12:13:32;15.10;99.90
75113;DHT22;63692;47.338;8.520;2023-05-10T12:15:58;15.10;99.90
75113;DHT22;63692;47.338;8.520;2023-05-10T12:18:24;15.20;99.90
75113;DHT22;63692;47.338;8.520;2023-05-10T12:20:52;15.10;99.90
75113;DHT22;63692;47.338;8.520;2023-05-10T12:23:19;15.10;99.90
75113;DHT22;63692;47.338;8.520;2023-05-10T12:25:45;15.10;99.90
75113;DHT22;63692;47.338;8.520;2023-05-10T12:28:11;15.00;99.90
75113;DHT22;63692;47.338;8.520;2023-05-10T12:30:37;14.90;99.90
75113;DHT22;63692;47.338;8.520;2023-05-10T12:33:12;15.00;99.90
75113;DHT22;63692;47.338;8.520;2023-05-10T12:38:37;14.80;99.90
75113;DHT22;63692;47.338;8.520;2023-05-10T12:41:05;14.70;99.90
75113;DHT22;63692;47.338;8.520;2023-05-10T12:43:32;14.70;99.90
75113;DHT22;63692;47.338;8.520;2023-05-10T12:45:58;14.70;99.90
75113;DHT22;63692;47.338;8.520;2023-05-10T12:48:24;14.60;99.90
75113;DHT22;63692;47.338;8.520;2023-05-10T12:50:50;14.80;99.90
75113;DHT22;63692;47.338;8.520;2023-05-10T12:53:16;14.80;99.90
75113;DHT22;63692;47.338;8.520;2023-05-10T12:55:43;14.90;99.90
75113;DHT22;63692;47.338;8.520;2023-05-10T12:58:08;14.80;99.90
75113;DHT22;63692;47.338;8.520;2023-05-10T13:00:34;14.80;99.90
75113;DHT22;63692;47.338;8.520;2023-05-10T13:03:00;14.80;99.90
75113;DHT22;63692;47.338;8.520;2023-05-10T13:05:25;14.90;99.90
75113;DHT22;63692;47.338;8.520;2023-05-10T13:07:51;14.90;99.90
75113;DHT22;63692;47.338;8.520;2023-05-10T13:10:17;15.00;99.90
75113;DHT22;63692;47.338;8.520;2023-05-10T13:12:42;15.10;99.90
75113;DHT22;63692;47.338;8.520;2023-05-10T13:15:08;15.10;99.90
75113;DHT22;63692;47.338;8.520;2023-05-10T13:17:34;15.10;99.90
75113;DHT22;63692;47.338;8.520;2023-05-10T13:19:59;15.00;99.90
75113;DHT22;63692;47.338;8.520;2023-05-10T13:22:25;15.00;99.90
75113;DHT22;63692;47.338;8.520;2023-05-10T13:24:51;15.00;99.90
75113;DHT22;63692;47.338;8.520;2023-05-10T13:27:16;15.00;99.90
75113;DHT22;63692;47.338;8.520;2023-05-10T13:29:42;15.00;99.90
75113;DHT22;63692;47.338;8.520;2023-05-10T13:32:07;15.00;99.90
75113;DHT22;63692;47.338;8.520;2023-05-10T13:34:33;15.10;99.90
75113;DHT22;63692;47.338;8.520;2023-05-10T13:37:01;15.10;99.90
75113;DHT22;63692;47.338;8.520;2023-05-10T13:39:26;15.20;99.90
75113;DHT22;63692;47.338;8.520;2023-05-10T13:41:52;15.30;99.90
75113;DHT22;63692;47.338;8.520;2023-05-10T13:44:19;15.30;99.90
75113;DHT22;63692;47.338;8.520;2023-05-10T13:46:45;15.30;99.90
75113;DHT22;63692;47.338;8.520;2023-05-10T13:49:11;15.10;99.90
75113;DHT22;63692;47.338;8.520;2023-05-10T13:51:37;15.10;99.90
75113;DHT22;63692;47.338;8.520;2023-05-10T13:54:03;15.10;99.90
75113;DHT22;63692;47.338;8.520;2023-05-10T13:56:28;15.00;99.90
75113;DHT22;63692;47.338;8.520;2023-05-10T13:58:55;15.00;99.90
75113;DHT22;63692;47.338;8.520;2023-05-10T14:01:21;15.00;99.90
75113;DHT22;63692;47.338;8.520;2023-05-10T14:03:47;14.90;99.90
75113;DHT22;63692;47.338;8.520;2023-05-10T14:06:13;14.80;99.90
75113;DHT22;63692;47.338;8.520;2023-05-10T14:08:39;14.80;99.90
75113;DHT22;63692;47.338;8.520;2023-05-10T14:11:04;14.80;99.90
75113;DHT22;63692;47.338;8.520;2023-05-10T14:13:30;14.80;99.90
75113;DHT22;63692;47.338;8.520;2023-05-10T14:15:57;14.90;99.90
75113;DHT22;63692;47.338;8.520;2023-05-10T14:18:24;14.70;99.90
75113;DHT22;63692;47.338;8.520;2023-05-10T14:20:49;14.70;99.90
75113;DHT22;63692;47.338;8.520;2023-05-10T14:23:15;14.70;99.90
75113;DHT22;63692;47.338;8.520;2023-05-10T14:25:41;14.70;99.90
75113;DHT22;63692;47.338;8.520;2023-05-10T14:28:07;14.80;99.90
75113;DHT22;63692;47.338;8.520;2023-05-10T14:30:32;14.80;99.90
75113;DHT22;63692;47.338;8.520;2023-05-10T14:33:01;14.90;99.90
75113;DHT22;63692;47.338;8.520;2023-05-10T14:35:28;15.00;99.90
75113;DHT22;63692;47.338;8.520;2023-05-10T14:37:53;15.30;99.90
75113;DHT22;63692;47.338;8.520;2023-05-10T14:40:19;15.50;99.90
75113;DHT22;63692;47.338;8.520;2023-05-10T14:42:46;15.80;99.90
75113;DHT22;63692;47.338;8.520;2023-05-10T14:45:12;16.20;99.90
75113;DHT22;63692;47.338;8.520;2023-05-10T14:47:38;16.50;99.90
75113;DHT22;63692;47.338;8.520;2023-05-10T14:50:04;16.40;99.90
75113;DHT22;63692;47.338;8.520;2023-05-10T14:52:30;16.60;99.90
75113;DHT22;63692;47.338;8.520;2023-05-10T14:54:55;16.50;99.90
75113;DHT22;63692;47.338;8.520;2023-05-10T14:57:21;16.40;99.90
75113;DHT22;63692;47.338;8.520;2023-05-10T14:59:46;16.30;99.90
75113;DHT22;63692;47.338;8.520;2023-05-10T15:02:13;16.20;99.90
75113;DHT22;63692;47.338;8.520;2023-05-10T15:04:38;15.80;99.90
75113;DHT22;63692;47.338;8.520;2023-05-10T15:07:04;15.70;99.90
75113;DHT22;63692;47.338;8.520;2023-05-10T15:09:30;15.60;99.90
75113;DHT22;63692;47.338;8.520;2023-05-10T15:11:55;15.40;99.90
75113;DHT22;63692;47.338;8.520;2023-05-10T15:14:22;15.30;99.90
75113;DHT22;63692;47.338;8.520;2023-05-10T15:16:47;15.10;99.90
75113;DHT22;63692;47.338;8.520;2023-05-10T15:19:13;15.10;99.90
75113;DHT22;63692;47.338;8.520;2023-05-10T15:21:39;14.90;99.90
75113;DHT22;63692;47.338;8.520;2023-05-10T15:24:08;14.60;99.90
75113;DHT22;63692;47.338;8.520;2023-05-10T15:26:33;14.10;99.90
75113;DHT22;63692;47.338;8.520;2023-05-10T15:28:59;13.70;99.90
75113;DHT22;63692;47.338;8.520;2023-05-10T15:31:25;13.60;99.90
75113;DHT22;63692;47.338;8.520;2023-05-10T15:33:50;13.50;99.90
75113;DHT22;63692;47.338;8.520;2023-05-10T15:36:16;13.50;99.90
75113;DHT22;63692;47.338;8.520;2023-05-10T15:38:43;13.40;99.90
75113;DHT22;63692;47.338;8.520;2023-05-10T15:41:09;13.50;99.90
75113;DHT22;63692;47.338;8.520;2023-05-10T15:43:35;13.40;99.90
75113;DHT22;63692;47.338;8.520;2023-05-10T15:46:01;13.50;99.90
75113;DHT22;63692;47.338;8.520;2023-05-10T15:48:26;13.50;99.90
75113;DHT22;63692;47.338;8.520;2023-05-10T15:50:52;13.50;99.90
75113;DHT22;63692;47.338;8.520;2023-05-10T15:53:18;13.70;99.90
75113;DHT22;63692;47.338;8.520;2023-05-10T15:55:43;13.70;99.90
75113;DHT22;63692;47.338;8.520;2023-05-10T15:58:09;13.70;99.90
75113;DHT22;63692;47.338;8.520;2023-05-10T16:00:35;13.80;99.90
75113;DHT22;63692;47.338;8.520;2023-05-10T16:03:01;13.80;99.90
75113;DHT22;63692;47.338;8.520;2023-05-10T16:05:27;13.80;99.90
75113;DHT22;63692;47.338;8.520;2023-05-10T16:07:56;13.80;99.90
75113;DHT22;63692;47.338;8.520;2023-05-10T16:10:22;13.80;99.90
75113;DHT22;63692;47.338;8.520;2023-05-10T16:12:47;13.80;99.90
75113;DHT22;63692;47.338;8.520;2023-05-10T16:15:13;13.80;99.90
75113;DHT22;63692;47.338;8.520;2023-05-10T16:17:39;13.70;99.90
75113;DHT22;63692;47.338;8.520;2023-05-10T16:20:06;13.60;99.90
75113;DHT22;63692;47.338;8.520;2023-05-10T16:22:31;13.50;99.90
75113;DHT22;63692;47.338;8.520;2023-05-10T16:24:57;13.50;99.90
75113;DHT22;63692;47.338;8.520;2023-05-10T16:27:23;13.30;99.90
75113;DHT22;63692;47.338;8.520;2023-05-10T16:29:49;13.30;99.90
75113;DHT22;63692;47.338;8.520;2023-05-10T16:32:15;13.20;99.90
75113;DHT22;63692;47.338;8.520;2023-05-10T16:34:41;13.10;99.90
75113;DHT22;63692;47.338;8.520;2023-05-10T16:37:06;13.10;99.90
75113;DHT22;63692;47.338;8.520;2023-05-10T16:39:32;13.10;99.90
75113;DHT22;63692;47.338;8.520;2023-05-10T16:41:58;13.10;99.90
75113;DHT22;63692;47.338;8.520;2023-05-10T16:44:23;13.10;99.90
75113;DHT22;63692;47.338;8.520;2023-05-10T16:46:49;13.00;99.90
75113;DHT22;63692;47.338;8.520;2023-05-10T16:49:15;13.10;99.90
75113;DHT22;63692;47.338;8.520;2023-05-10T16:51:41;13.10;99.90
75113;DHT22;63692;47.338;8.520;2023-05-10T16:54:07;13.00;99.90
75113;DHT22;63692;47.338;8.520;2023-05-10T16:56:33;13.00;99.90
75113;DHT22;63692;47.338;8.520;2023-05-10T16:58:58;13.00;99.90
75113;DHT22;63692;47.338;8.520;2023-05-10T17:01:24;13.00;99.90
75113;DHT22;63692;47.338;8.520;2023-05-10T17:03:49;13.10;99.90
75113;DHT22;63692;47.338;8.520;2023-05-10T17:06:15;13.20;99.90
75113;DHT22;63692;47.338;8.520;2023-05-10T17:08:41;13.20;99.90
75113;DHT22;63692;47.338;8.520;2023-05-10T17:11:06;13.40;99.90
75113;DHT22;63692;47.338;8.520;2023-05-10T17:13:32;13.30;99.90
75113;DHT22;63692;47.338;8.520;2023-05-10T17:16:00;13.40;99.90
75113;DHT22;63692;47.338;8.520;2023-05-10T17:18:28;13.40;99.90
75113;DHT22;63692;47.338;8.520;2023-05-10T17:20:53;13.30;99.90
75113;DHT22;63692;47.338;8.520;2023-05-10T17:23:19;13.30;99.90
75113;DHT22;63692;47.338;8.520;2023-05-10T17:25:45;13.30;99.90
75113;DHT22;63692;47.338;8.520;2023-05-10T17:28:11;13.20;99.90
75113;DHT22;63692;47.338;8.520;2023-05-10T17:30:36;13.30;99.90
75113;DHT22;63692;47.338;8.520;2023-05-10T17:33:02;13.20;99.90
75113;DHT22;63692;47.338;8.520;2023-05-10T17:35:28;13.20;99.90
75113;DHT22;63692;47.338;8.520;2023-05-10T17:37:55;13.20;99.90
75113;DHT22;63692;47.338;8.520;2023-05-10T17:40:21;13.20;99.90
75113;DHT22;63692;47.338;8.520;2023-05-10T17:42:47;13.10;99.90
75113;DHT22;63692;47.338;8.520;2023-05-10T17:45:13;13.10;99.90
75113;DHT22;63692;47.338;8.520;2023-05-10T17:47:38;13.20;99.90
75113;DHT22;63692;47.338;8.520;2023-05-10T17:50:05;13.30;99.90
75113;DHT22;63692;47.338;8.520;2023-05-10T17:52:31;13.30;99.90
75113;DHT22;63692;47.338;8.520;2023-05-10T17:54:56;13.20;99.90
75113;DHT22;63692;47.338;8.520;2023-05-10T17:57:22;13.20;99.90
75113;DHT22;63692;47.338;8.520;2023-05-10T17:59:49;13.20;99.90
75113;DHT22;63692;47.338;8.520;2023-05-10T18:02:14;13.10;99.90
75113;DHT22;63692;47.338;8.520;2023-05-10T18:19:43;12.40;99.90
75113;DHT22;63692;47.338;8.520;2023-05-10T18:22:27;12.30;99.90
